createdAt,value
2019-03-13T00:01:42.349Z,-0.06
2019-03-13T00:03:52.000Z,-0.05
2019-03-13T00:06:00.987Z,-0.03
2019-03-13T00:08:08.767Z,0.01
2019-03-13T00:10:16.936Z,0.00
2019-03-13T00:12:24.626Z,-0.03
2019-03-13T00:14:32.583Z,-0.07
2019-03-13T00:16:40.313Z,-0.12
2019-03-13T00:18:47.938Z,-0.18
2019-03-13T00:20:55.738Z,-0.22
2019-03-13T00:23:03.591Z,-0.19
2019-03-13T00:25:11.553Z,-0.18
2019-03-13T00:27:19.277Z,-0.23
2019-03-13T00:29:27.122Z,-0.30
2019-03-13T00:31:36.160Z,-0.41
2019-03-13T00:33:43.874Z,-0.44
2019-03-13T00:35:51.627Z,-0.53
2019-03-13T00:37:59.325Z,-0.44
2019-03-13T00:40:11.847Z,-0.41
2019-03-13T00:42:19.509Z,-0.34
2019-03-13T00:44:27.128Z,-0.28
2019-03-13T00:46:34.754Z,-0.24
2019-03-13T00:48:42.497Z,-0.22
2019-03-13T00:50:50.542Z,-0.19
2019-03-13T00:52:58.293Z,-0.19
2019-03-13T00:55:07.386Z,-0.18
2019-03-13T00:57:15.015Z,-0.15
2019-03-13T00:59:22.692Z,-0.13
2019-03-13T01:01:38.823Z,-0.15
2019-03-13T01:03:48.293Z,-0.10
2019-03-13T01:06:00.458Z,-0.10
2019-03-13T01:08:08.110Z,-0.10
2019-03-13T01:10:16.366Z,-0.07
2019-03-13T01:12:24.126Z,-0.03
2019-03-13T01:14:31.769Z,-0.01
2019-03-13T01:16:39.378Z,0.00
2019-03-13T01:18:48.225Z,0.03
2019-03-13T01:20:56.020Z,0.03
2019-03-13T01:23:03.730Z,0.02
2019-03-13T01:25:12.598Z,0.03
2019-03-13T01:27:20.221Z,0.06
2019-03-13T01:29:29.130Z,0.08
2019-03-13T01:31:36.739Z,0.09
2019-03-13T01:33:44.651Z,0.11
2019-03-13T01:36:00.008Z,0.11
2019-03-13T01:38:07.816Z,0.12
2019-03-13T01:40:15.791Z,0.11
2019-03-13T01:42:23.474Z,0.14
2019-03-13T01:44:31.140Z,0.12
2019-03-13T01:46:38.773Z,0.13
2019-03-13T01:48:46.480Z,0.11
2019-03-13T01:50:54.292Z,0.12
2019-03-13T01:53:03.288Z,0.11
2019-03-13T01:55:11.843Z,0.10
2019-03-13T01:57:19.450Z,0.07
2019-03-13T01:59:27.085Z,0.10
2019-03-13T02:01:34.700Z,0.12
2019-03-13T02:03:42.406Z,0.12
2019-03-13T02:05:50.056Z,0.14
2019-03-13T02:07:58.312Z,0.10
2019-03-13T02:10:11.931Z,0.10
2019-03-13T02:12:19.635Z,0.08
2019-03-13T02:14:27.237Z,0.08
2019-03-13T02:16:35.324Z,0.06
2019-03-13T02:18:44.250Z,0.05
2019-03-13T02:20:51.926Z,0.03
2019-03-13T02:22:59.734Z,0.00
2019-03-13T02:25:10.691Z,-0.04
2019-03-13T02:27:18.386Z,-0.04
2019-03-13T02:29:26.107Z,-0.07
2019-03-13T02:31:33.969Z,-0.07
2019-03-13T02:33:41.583Z,-0.07
2019-03-13T02:35:50.855Z,-0.07
2019-03-13T02:37:58.560Z,-0.07
2019-03-13T02:40:14.514Z,-0.08
2019-03-13T02:42:22.145Z,-0.13
2019-03-13T02:44:29.797Z,-0.10
2019-03-13T02:46:37.491Z,-0.05
2019-03-13T02:48:45.268Z,-0.04
2019-03-13T02:50:53.014Z,-0.02
2019-03-13T02:53:00.697Z,0.02
2019-03-13T02:55:10.403Z,0.04
2019-03-13T02:57:18.044Z,0.02
2019-03-13T02:59:25.648Z,0.08
2019-03-13T03:01:37.659Z,0.11
2019-03-13T03:03:47.032Z,0.14
2019-03-13T03:05:57.171Z,0.13
2019-03-13T03:08:05.706Z,-0.05
2019-03-13T03:10:14.282Z,-0.03
2019-03-13T03:12:22.003Z,-0.07
2019-03-13T03:14:29.690Z,-0.06
2019-03-13T03:16:37.519Z,0.12
2019-03-13T03:18:45.265Z,-0.02
2019-03-13T03:20:52.981Z,0.05
2019-03-13T03:23:00.723Z,0.05
2019-03-13T03:25:12.439Z,0.04
2019-03-13T03:27:20.069Z,0.13
2019-03-13T03:29:27.814Z,0.21
2019-03-13T03:31:35.475Z,0.33
2019-03-13T03:33:44.693Z,0.26
2019-03-13T03:35:52.301Z,0.34
2019-03-13T03:37:59.979Z,0.34
2019-03-13T03:40:15.042Z,0.26
2019-03-13T03:42:23.983Z,0.26
2019-03-13T03:44:31.550Z,0.40
2019-03-13T03:46:39.127Z,0.46
2019-03-13T03:48:46.812Z,0.27
2019-03-13T03:50:54.453Z,0.28
2019-03-13T03:53:02.108Z,0.27
2019-03-13T03:55:12.399Z,0.37
2019-03-13T03:57:20.015Z,0.33
2019-03-13T03:59:27.721Z,0.41
2019-03-13T04:01:35.416Z,0.31
2019-03-13T04:03:43.005Z,0.27
2019-03-13T04:05:50.652Z,0.35
2019-03-13T04:07:58.268Z,0.44
2019-03-13T04:10:14.985Z,0.47
2019-03-13T04:12:22.643Z,0.41
2019-03-13T04:14:30.250Z,0.36
2019-03-13T04:16:37.846Z,0.49
2019-03-13T04:18:46.782Z,0.52
2019-03-13T04:20:54.392Z,0.58
2019-03-13T04:23:03.273Z,0.60
2019-03-13T04:25:21.129Z,0.65
2019-03-13T04:27:28.843Z,0.61
2019-03-13T04:29:36.490Z,0.73
2019-03-13T04:31:44.074Z,0.79
2019-03-13T04:33:51.681Z,0.81
2019-03-13T04:35:59.332Z,0.77
2019-03-13T04:38:08.162Z,0.83
2019-03-13T04:40:17.232Z,0.86
2019-03-13T04:42:24.913Z,0.80
2019-03-13T04:44:32.572Z,0.85
2019-03-13T04:46:40.189Z,0.89
2019-03-13T04:48:47.875Z,0.93
2019-03-13T04:50:56.692Z,0.92
2019-03-13T04:53:04.425Z,0.99
2019-03-13T04:55:17.483Z,1.03
2019-03-13T04:57:25.182Z,1.09
2019-03-13T04:59:32.890Z,1.10
2019-03-13T05:01:40.478Z,1.05
2019-03-13T05:03:48.061Z,1.04
2019-03-13T05:05:55.940Z,1.11
2019-03-13T05:08:03.517Z,1.12
2019-03-13T05:10:12.026Z,1.14
2019-03-13T05:12:19.650Z,1.10
2019-03-13T05:14:27.233Z,1.17
2019-03-13T05:16:34.812Z,1.22
2019-03-13T05:18:43.718Z,1.23
2019-03-13T05:20:52.655Z,1.23
2019-03-13T05:23:00.342Z,1.28
2019-03-13T05:25:08.275Z,1.28
2019-03-13T05:27:16.047Z,1.37
2019-03-13T05:29:23.631Z,1.36
2019-03-13T05:31:31.343Z,1.42
2019-03-13T05:33:39.017Z,1.42
2019-03-13T05:35:46.628Z,1.47
2019-03-13T05:37:54.225Z,1.44
2019-03-13T05:40:01.860Z,1.50
2019-03-13T05:42:09.437Z,1.55
2019-03-13T05:44:17.311Z,1.54
2019-03-13T05:46:24.986Z,1.60
2019-03-13T05:48:32.548Z,1.65
2019-03-13T05:50:40.146Z,1.73
2019-03-13T05:52:47.712Z,1.75
2019-03-13T05:54:56.578Z,1.74
2019-03-13T05:57:04.341Z,1.83
2019-03-13T05:59:11.917Z,1.87
2019-03-13T06:01:20.782Z,1.88
2019-03-13T06:03:28.489Z,1.95
2019-03-13T06:05:37.354Z,1.91
2019-03-13T06:07:44.943Z,2.00
2019-03-13T06:09:53.836Z,2.02
2019-03-13T06:12:01.840Z,2.11
2019-03-13T06:14:09.410Z,2.13
2019-03-13T06:16:19.887Z,2.16
2019-03-13T06:18:27.560Z,2.27
2019-03-13T06:20:35.136Z,2.37
2019-03-13T06:22:42.776Z,2.45
2019-03-13T06:24:50.447Z,2.46
2019-03-13T06:26:58.225Z,2.48
2019-03-13T06:29:05.824Z,2.55
2019-03-13T06:31:13.399Z,2.60
2019-03-13T06:33:21.062Z,2.67
2019-03-13T06:35:28.735Z,2.75
2019-03-13T06:37:36.308Z,2.82
2019-03-13T06:39:43.883Z,2.88
2019-03-13T06:41:51.565Z,2.81
2019-03-13T06:43:59.136Z,2.95
2019-03-13T06:46:06.920Z,3.05
2019-03-13T06:48:14.516Z,3.09
2019-03-13T06:50:24.604Z,3.13
2019-03-13T06:52:32.426Z,3.17
2019-03-13T06:54:40.123Z,3.17
2019-03-13T06:56:48.766Z,2.98
2019-03-13T06:59:00.764Z,3.00
2019-03-13T07:01:13.681Z,3.22
2019-03-13T07:03:24.204Z,3.18
2019-03-13T07:05:34.476Z,3.18
2019-03-13T07:07:49.490Z,3.29
2019-03-13T07:09:58.772Z,3.35
2019-03-13T07:12:10.882Z,3.31
2019-03-13T07:14:26.475Z,3.31
2019-03-13T07:16:33.816Z,3.42
2019-03-13T07:18:43.910Z,3.46
2019-03-13T07:21:08.476Z,3.29
2019-03-13T07:23:23.520Z,3.42
2019-03-13T07:25:41.661Z,3.46
2019-03-13T07:27:54.122Z,3.42
2019-03-13T07:30:13.342Z,3.42
2019-03-13T07:32:38.813Z,3.49
2019-03-13T07:35:03.306Z,3.56
2019-03-13T07:37:15.319Z,3.60
2019-03-13T07:39:28.454Z,3.75
2019-03-13T07:41:50.085Z,3.81
2019-03-13T07:44:17.703Z,3.75
2019-03-13T07:46:25.048Z,3.90
2019-03-13T07:48:51.918Z,3.82
2019-03-13T07:51:01.640Z,3.85
2019-03-13T07:53:11.080Z,3.92
2019-03-13T07:55:27.388Z,3.90
2019-03-13T07:57:36.610Z,4.11
2019-03-13T07:59:48.524Z,4.05
2019-03-13T08:01:57.909Z,4.20
2019-03-13T08:04:07.268Z,4.29
2019-03-13T08:06:25.262Z,4.34
2019-03-13T08:08:34.671Z,4.43
2019-03-13T08:10:53.099Z,4.32
2019-03-13T08:13:09.238Z,4.55
2019-03-13T08:15:33.507Z,4.56
2019-03-13T08:17:54.549Z,4.60
2019-03-13T08:20:13.891Z,4.64
2019-03-13T08:22:34.781Z,4.80
2019-03-13T08:24:46.476Z,4.98
2019-03-13T08:27:10.896Z,4.86
2019-03-13T08:29:36.894Z,4.96
2019-03-13T08:31:46.090Z,5.09
2019-03-13T08:33:54.721Z,5.19
2019-03-13T08:36:20.080Z,5.19
2019-03-13T08:38:32.237Z,5.34
2019-03-13T08:40:39.653Z,5.34
2019-03-13T08:42:48.902Z,5.57
2019-03-13T08:44:58.218Z,5.65
2019-03-13T08:47:10.513Z,5.61
2019-03-13T08:49:36.313Z,5.55
2019-03-13T08:51:45.583Z,5.77
2019-03-13T08:53:57.586Z,5.90
2019-03-13T08:56:19.229Z,5.99
2019-03-13T08:58:28.447Z,6.07
2019-03-13T09:00:49.296Z,6.11
2019-03-13T09:03:01.237Z,6.05
2019-03-13T09:05:20.681Z,6.19
2019-03-13T09:07:32.834Z,6.15
2019-03-13T09:09:45.056Z,6.26
2019-03-13T09:11:56.806Z,6.17
2019-03-13T09:14:23.581Z,6.02
2019-03-13T09:16:32.939Z,6.08
2019-03-13T09:18:51.415Z,6.02
2019-03-13T09:21:15.814Z,6.31
2019-03-13T09:23:24.281Z,6.10
2019-03-13T09:25:31.712Z,5.93
2019-03-13T09:27:54.091Z,6.08
2019-03-13T09:30:04.081Z,6.13
2019-03-13T09:32:28.900Z,6.34
2019-03-13T09:34:38.198Z,6.39
2019-03-13T09:36:48.440Z,6.52
2019-03-13T09:38:57.757Z,6.55
2019-03-13T09:41:22.530Z,6.54
2019-03-13T09:43:48.322Z,6.61
2019-03-13T09:45:55.659Z,6.76
2019-03-13T09:48:15.175Z,6.70
2019-03-13T09:50:33.199Z,6.70
2019-03-13T09:52:40.641Z,6.76
2019-03-13T09:54:49.870Z,6.84
2019-03-13T09:56:58.553Z,6.80
2019-03-13T09:59:11.894Z,6.83
2019-03-13T10:01:33.379Z,6.80
2019-03-13T10:03:45.445Z,6.81
2019-03-13T10:06:11.221Z,6.80
2019-03-13T10:08:20.437Z,6.78
2019-03-13T10:10:29.675Z,6.75
2019-03-13T10:12:54.976Z,6.73
2019-03-13T10:15:07.489Z,6.70
2019-03-13T10:17:22.778Z,6.70
2019-03-13T10:19:34.998Z,6.73
2019-03-13T10:21:47.255Z,6.73
2019-03-13T10:23:59.473Z,6.73
2019-03-13T10:26:24.482Z,6.72
2019-03-13T10:28:37.652Z,6.73
2019-03-13T10:30:55.649Z,6.71
2019-03-13T10:33:05.056Z,6.72
2019-03-13T10:35:14.407Z,6.72
2019-03-13T10:37:41.202Z,6.71
2019-03-13T10:39:56.067Z,6.68
2019-03-13T10:42:05.448Z,6.68
2019-03-13T10:44:12.895Z,6.67
2019-03-13T10:46:38.423Z,6.69
2019-03-13T10:49:02.827Z,6.68
2019-03-13T10:51:12.241Z,6.70
2019-03-13T10:53:24.281Z,6.69
2019-03-13T10:55:48.743Z,6.65
2019-03-13T10:58:08.316Z,6.65
2019-03-13T11:00:34.958Z,6.65
2019-03-13T11:02:48.288Z,6.63
2019-03-13T11:04:57.617Z,6.62
2019-03-13T11:07:23.079Z,6.62
2019-03-13T11:09:32.397Z,6.61
2019-03-13T11:11:56.745Z,6.64
2019-03-13T11:14:15.788Z,6.65
2019-03-13T11:16:43.095Z,6.68
2019-03-13T11:19:08.699Z,6.69
2019-03-13T11:21:24.117Z,6.73
2019-03-13T11:23:37.404Z,6.72
2019-03-13T11:25:46.550Z,6.73
2019-03-13T11:28:11.951Z,6.75
2019-03-13T11:30:21.403Z,6.75
2019-03-13T11:32:33.513Z,6.78
2019-03-13T11:34:50.270Z,6.77
2019-03-13T11:37:02.051Z,6.76
2019-03-13T11:39:16.751Z,6.75
2019-03-13T11:41:26.147Z,6.75
2019-03-13T11:43:50.803Z,6.75
2019-03-13T11:46:02.868Z,6.75
2019-03-13T11:48:28.445Z,6.73
2019-03-13T11:50:49.720Z,6.74
2019-03-13T11:52:59.138Z,6.77
2019-03-13T11:55:16.736Z,6.77
2019-03-13T11:57:31.905Z,6.77
2019-03-13T11:59:43.828Z,6.81
2019-03-13T12:02:04.892Z,6.84
2019-03-13T12:04:18.307Z,6.83
2019-03-13T12:06:31.912Z,6.83
2019-03-13T12:08:47.167Z,6.82
2019-03-13T12:11:11.912Z,6.80
2019-03-13T12:13:23.993Z,6.82
2019-03-13T12:15:35.899Z,6.74
2019-03-13T12:17:52.375Z,6.75
2019-03-13T12:20:04.557Z,6.68
2019-03-13T12:22:13.879Z,6.72
2019-03-13T12:24:26.826Z,6.72
2019-03-13T12:26:45.243Z,6.71
2019-03-13T12:29:10.786Z,6.71
2019-03-13T12:31:36.512Z,6.68
2019-03-13T12:33:51.921Z,6.67
2019-03-13T12:36:03.893Z,6.62
2019-03-13T12:38:22.258Z,6.59
2019-03-13T12:40:44.777Z,6.55
2019-03-13T12:42:53.995Z,6.56
2019-03-13T12:45:03.355Z,6.57
2019-03-13T12:47:10.811Z,6.56
2019-03-13T12:49:20.133Z,6.59
2019-03-13T12:51:41.795Z,6.63
2019-03-13T12:53:53.532Z,6.62
2019-03-13T12:56:00.844Z,6.63
2019-03-13T12:58:13.071Z,6.63
2019-03-13T13:00:31.593Z,6.60
2019-03-13T13:02:55.035Z,6.60
2019-03-13T13:05:16.402Z,6.62
2019-03-13T13:07:25.661Z,6.64
2019-03-13T13:09:35.818Z,6.63
2019-03-13T13:11:43.064Z,6.68
2019-03-13T13:13:56.696Z,6.63
2019-03-13T13:16:22.123Z,6.79
2019-03-13T13:18:47.553Z,6.89
2019-03-13T13:20:55.225Z,6.88
2019-03-13T13:23:02.839Z,7.03
2019-03-13T13:25:12.266Z,7.08
2019-03-13T13:27:19.848Z,7.24
2019-03-13T13:29:27.493Z,7.35
2019-03-13T13:31:35.073Z,7.43
2019-03-13T13:33:42.859Z,7.53
2019-03-13T13:35:50.638Z,7.55
2019-03-13T13:37:58.535Z,7.62
2019-03-13T13:40:13.172Z,7.69
2019-03-13T13:42:20.740Z,7.77
2019-03-13T13:44:29.385Z,7.86
2019-03-13T13:46:37.120Z,8.01
2019-03-13T13:48:44.867Z,8.14
2019-03-13T13:50:52.442Z,8.23
2019-03-13T13:53:00.047Z,8.28
2019-03-13T13:55:08.162Z,8.37
2019-03-13T13:57:15.902Z,8.30
2019-03-13T13:59:23.602Z,8.42
2019-03-13T14:01:31.347Z,8.47
2019-03-13T14:03:38.922Z,8.44
2019-03-13T14:05:46.725Z,8.47
2019-03-13T14:07:54.654Z,8.48
2019-03-13T14:10:02.332Z,8.47
2019-03-13T14:12:10.378Z,8.42
2019-03-13T14:14:18.069Z,8.35
2019-03-13T14:16:25.637Z,8.38
2019-03-13T14:18:33.442Z,8.30
2019-03-13T14:20:41.155Z,8.36
2019-03-13T14:22:48.898Z,8.41
2019-03-13T14:24:56.579Z,8.44
2019-03-13T14:27:13.908Z,8.47
2019-03-13T14:29:13.597Z,8.50
2019-03-13T14:31:21.210Z,8.56
2019-03-13T14:33:29.723Z,8.57
2019-03-13T14:35:37.372Z,8.71
2019-03-13T14:37:45.165Z,8.85
2019-03-13T14:39:52.840Z,8.96
2019-03-13T14:42:00.537Z,9.06
2019-03-13T14:44:08.296Z,9.18
2019-03-13T14:46:19.651Z,9.32
2019-03-13T14:48:27.223Z,9.36
2019-03-13T14:50:36.513Z,9.17
2019-03-13T14:52:44.301Z,9.35
2019-03-13T14:54:51.865Z,9.43
2019-03-13T14:57:00.538Z,9.39
2019-03-13T14:59:08.176Z,9.29
2019-03-13T15:01:15.893Z,9.25
2019-03-13T15:03:23.515Z,9.25
2019-03-13T15:05:31.367Z,9.26
2019-03-13T15:07:39.205Z,9.25
2019-03-13T15:09:46.781Z,9.22
2019-03-13T15:11:54.357Z,9.19
2019-03-13T15:14:01.929Z,9.17
2019-03-13T15:16:10.841Z,9.15
2019-03-13T15:18:18.419Z,9.18
2019-03-13T15:20:31.954Z,9.18
2019-03-13T15:22:39.626Z,9.04
2019-03-13T15:24:47.197Z,8.98
2019-03-13T15:26:54.779Z,9.07
2019-03-13T15:29:02.413Z,9.04
2019-03-13T15:31:10.098Z,9.01
2019-03-13T15:33:18.511Z,8.86
2019-03-13T15:35:26.431Z,8.87
2019-03-13T15:37:34.146Z,8.84
2019-03-13T15:39:41.737Z,8.80
2019-03-13T15:41:49.430Z,8.78
2019-03-13T15:43:57.025Z,8.68
2019-03-13T15:46:04.604Z,8.69
2019-03-13T15:48:12.373Z,8.67
2019-03-13T15:50:20.368Z,8.63
2019-03-13T15:52:28.042Z,8.57
2019-03-13T15:54:35.659Z,8.52
2019-03-13T15:56:43.236Z,8.47
2019-03-13T15:58:50.915Z,8.38
2019-03-13T16:00:58.511Z,8.15
2019-03-13T16:03:06.319Z,8.28
2019-03-13T16:05:14.229Z,8.24
2019-03-13T16:07:21.846Z,8.24
2019-03-13T16:09:29.593Z,8.22
2019-03-13T16:11:37.165Z,8.21
2019-03-13T16:13:44.763Z,8.14
2019-03-13T16:15:52.424Z,8.08
2019-03-13T16:18:00.323Z,8.03
2019-03-13T16:20:12.290Z,7.97
2019-03-13T16:22:22.420Z,7.96
2019-03-13T16:24:30.720Z,7.93
2019-03-13T16:26:38.527Z,7.92
2019-03-13T16:28:46.097Z,7.91
2019-03-13T16:30:56.334Z,7.82
2019-03-13T16:33:04.184Z,7.79
2019-03-13T16:35:12.194Z,7.70
2019-03-13T16:37:19.938Z,7.65
2019-03-13T16:39:27.711Z,7.57
2019-03-13T16:41:35.456Z,7.50
2019-03-13T16:43:43.096Z,7.40
2019-03-13T16:45:50.721Z,7.44
2019-03-13T16:47:58.478Z,7.36
2019-03-13T16:50:13.233Z,7.28
2019-03-13T16:52:20.978Z,7.22
2019-03-13T16:54:28.641Z,7.20
2019-03-13T16:56:37.200Z,7.13
2019-03-13T16:58:45.003Z,7.05
2019-03-13T17:00:52.682Z,7.02
2019-03-13T17:03:00.591Z,7.02
2019-03-13T17:05:12.554Z,6.89
2019-03-13T17:07:20.208Z,6.80
2019-03-13T17:09:27.901Z,6.74
2019-03-13T17:11:35.648Z,6.63
2019-03-13T17:13:43.415Z,6.46
2019-03-13T17:15:50.977Z,6.29
2019-03-13T17:17:58.687Z,6.21
2019-03-13T17:20:21.864Z,6.21
2019-03-13T17:22:30.161Z,6.09
2019-03-13T17:24:37.871Z,6.10
2019-03-13T17:26:45.706Z,6.02
2019-03-13T17:28:54.271Z,6.06
2019-03-13T17:31:02.173Z,6.06
2019-03-13T17:33:09.907Z,6.05
2019-03-13T17:35:17.729Z,6.04
2019-03-13T17:37:25.333Z,6.01
2019-03-13T17:39:33.965Z,5.98
2019-03-13T17:41:41.783Z,5.93
2019-03-13T17:43:49.399Z,5.87
2019-03-13T17:45:57.094Z,5.82
2019-03-13T17:48:07.088Z,5.76
2019-03-13T17:50:17.918Z,5.62
2019-03-13T17:52:25.521Z,5.55
2019-03-13T17:54:33.100Z,5.51
2019-03-13T17:56:40.742Z,5.42
2019-03-13T17:58:48.520Z,5.42
2019-03-13T18:00:57.173Z,5.39
2019-03-13T18:03:05.556Z,5.29
2019-03-13T18:05:14.846Z,5.31
2019-03-13T18:07:22.573Z,5.21
2019-03-13T18:09:30.286Z,5.02
2019-03-13T18:11:37.975Z,5.02
2019-03-13T18:13:45.688Z,4.93
2019-03-13T18:15:53.295Z,4.87
2019-03-13T18:18:01.951Z,4.81
2019-03-13T18:20:18.419Z,4.74
2019-03-13T18:22:26.036Z,4.67
2019-03-13T18:24:34.165Z,4.58
2019-03-13T18:26:43.026Z,4.54
2019-03-13T18:28:50.698Z,4.51
2019-03-13T18:31:01.687Z,4.47
2019-03-13T18:33:07.927Z,4.42
2019-03-13T18:35:17.352Z,4.37
2019-03-13T18:37:25.007Z,4.34
2019-03-13T18:39:32.594Z,4.36
2019-03-13T18:41:40.321Z,4.40
2019-03-13T18:43:48.008Z,4.44
2019-03-13T18:45:55.595Z,4.45
2019-03-13T18:48:03.438Z,4.41
2019-03-13T18:50:15.501Z,4.34
2019-03-13T18:52:24.194Z,4.34
2019-03-13T18:54:31.813Z,4.32
2019-03-13T18:56:39.399Z,4.23
2019-03-13T18:58:46.998Z,4.10
2019-03-13T19:00:54.644Z,4.11
2019-03-13T19:03:14.794Z,4.23
2019-03-13T19:05:22.513Z,4.22
2019-03-13T19:07:30.148Z,4.16
2019-03-13T19:09:37.817Z,4.17
2019-03-13T19:11:45.574Z,4.09
2019-03-13T19:13:53.314Z,3.78
2019-03-13T19:16:01.062Z,3.56
2019-03-13T19:18:09.156Z,3.57
2019-03-13T19:20:23.504Z,3.58
2019-03-13T19:22:31.225Z,3.52
2019-03-13T19:24:39.746Z,3.60
2019-03-13T19:26:48.742Z,3.61
2019-03-13T19:28:56.398Z,3.51
2019-03-13T19:31:04.083Z,3.61
2019-03-13T19:33:11.702Z,3.70
2019-03-13T19:35:19.696Z,3.64
2019-03-13T19:37:27.983Z,3.65
2019-03-13T19:39:35.809Z,3.62
2019-03-13T19:41:43.393Z,3.68
2019-03-13T19:43:51.168Z,3.69
2019-03-13T19:45:58.943Z,3.73
2019-03-13T19:48:06.675Z,3.73
2019-03-13T19:50:17.228Z,3.72
2019-03-13T19:52:24.928Z,3.68
2019-03-13T19:54:33.829Z,3.64
2019-03-13T19:56:41.409Z,3.59
2019-03-13T19:58:49.111Z,3.56
2019-03-13T20:00:56.866Z,3.55
2019-03-13T20:03:11.224Z,3.54
2019-03-13T20:05:18.974Z,3.56
2019-03-13T20:07:26.559Z,3.58
2019-03-13T20:09:34.253Z,3.61
2019-03-13T20:11:42.048Z,3.66
2019-03-13T20:13:49.714Z,3.71
2019-03-13T20:15:57.473Z,3.77
2019-03-13T20:18:05.827Z,3.75
2019-03-13T20:20:16.980Z,3.83
2019-03-13T20:22:24.463Z,3.90
2019-03-13T20:24:32.191Z,3.94
2019-03-13T20:26:40.076Z,3.97
2019-03-13T20:28:47.809Z,4.00
2019-03-13T20:30:55.540Z,4.01
2019-03-13T20:33:03.533Z,4.03
2019-03-13T20:35:11.810Z,4.02
2019-03-13T20:37:19.792Z,3.97
2019-03-13T20:39:27.401Z,3.94
2019-03-13T20:41:37.336Z,3.93
2019-03-13T20:43:46.113Z,3.83
2019-03-13T20:45:53.725Z,3.86
2019-03-13T20:48:04.076Z,3.87
2019-03-13T20:50:11.852Z,3.85
2019-03-13T20:52:20.759Z,3.80
2019-03-13T20:54:29.745Z,3.78
2019-03-13T20:56:38.632Z,3.73
2019-03-13T20:58:51.344Z,3.70
2019-03-13T21:00:59.231Z,3.68
2019-03-13T21:03:10.465Z,3.72
2019-03-13T21:05:18.617Z,3.71
2019-03-13T21:07:27.655Z,3.70
2019-03-13T21:09:35.320Z,3.69
2019-03-13T21:11:43.070Z,3.68
2019-03-13T21:13:50.821Z,3.68
2019-03-13T21:15:58.507Z,3.67
2019-03-13T21:18:06.131Z,3.65
2019-03-13T21:20:16.778Z,3.65
2019-03-13T21:22:24.369Z,3.66
2019-03-13T21:24:32.062Z,3.59
2019-03-13T21:26:39.734Z,3.64
2019-03-13T21:28:47.419Z,3.64
2019-03-13T21:30:55.028Z,3.64
2019-03-13T21:33:02.587Z,3.66
2019-03-13T21:35:10.346Z,3.58
2019-03-13T21:37:17.948Z,3.71
2019-03-13T21:39:26.599Z,3.76
2019-03-13T21:41:35.495Z,3.62
2019-03-13T21:43:43.563Z,3.73
2019-03-13T21:45:51.244Z,3.76
2019-03-13T21:47:58.987Z,3.82
2019-03-13T21:50:16.928Z,3.90
2019-03-13T21:52:24.575Z,3.89
2019-03-13T21:54:32.360Z,3.92
2019-03-13T21:56:39.934Z,3.94
2019-03-13T21:58:47.591Z,3.84
2019-03-13T22:00:55.203Z,3.78
2019-03-13T22:03:02.791Z,3.93
2019-03-13T22:05:10.440Z,3.96
2019-03-13T22:07:18.193Z,4.01
2019-03-13T22:09:25.881Z,3.99
2019-03-13T22:11:33.728Z,4.06
2019-03-13T22:13:41.397Z,4.12
2019-03-13T22:15:49.070Z,4.02
2019-03-13T22:17:56.812Z,3.99
2019-03-13T22:20:06.697Z,4.07
2019-03-13T22:22:14.281Z,4.01
2019-03-13T22:24:21.944Z,4.03
2019-03-13T22:26:29.632Z,3.98
2019-03-13T22:28:38.051Z,3.98
2019-03-13T22:30:45.735Z,3.88
2019-03-13T22:32:53.842Z,3.92
2019-03-13T22:35:01.534Z,3.97
2019-03-13T22:37:09.171Z,3.95
2019-03-13T22:39:16.966Z,3.93
2019-03-13T22:41:24.544Z,3.97
2019-03-13T22:43:32.222Z,3.92
2019-03-13T22:45:40.007Z,3.96
2019-03-13T22:47:47.925Z,3.96
2019-03-13T22:49:55.674Z,3.98
2019-03-13T22:52:03.374Z,3.99
2019-03-13T22:54:12.017Z,3.86
2019-03-13T22:56:22.449Z,3.87
2019-03-13T22:58:30.049Z,3.80
2019-03-13T23:00:50.196Z,3.82
2019-03-13T23:02:59.482Z,3.85
2019-03-13T23:05:07.253Z,3.87
2019-03-13T23:07:15.244Z,3.81
2019-03-13T23:09:23.094Z,3.70
2019-03-13T23:11:30.790Z,3.68
2019-03-13T23:13:38.532Z,3.62
2019-03-13T23:15:46.440Z,3.63
2019-03-13T23:17:54.144Z,3.49
2019-03-13T23:20:01.858Z,3.48
2019-03-13T23:22:09.561Z,3.48
2019-03-13T23:24:17.155Z,3.50
2019-03-13T23:26:24.799Z,3.47
2019-03-13T23:28:32.566Z,3.48
2019-03-13T23:30:41.258Z,3.50
2019-03-13T23:32:48.824Z,3.51
2019-03-13T23:34:56.498Z,3.50
2019-03-13T23:37:04.135Z,3.56
2019-03-13T23:39:12.276Z,3.61
2019-03-13T23:41:19.859Z,3.58
2019-03-13T23:43:27.472Z,3.62
2019-03-13T23:45:35.128Z,3.63
2019-03-13T23:47:42.877Z,3.62
2019-03-13T23:49:50.550Z,3.59
2019-03-13T23:51:58.129Z,3.53
2019-03-13T23:54:05.738Z,3.51
2019-03-13T23:56:13.312Z,3.50
2019-03-13T23:58:20.881Z,3.50
